sensor_id;sensor_type;location;lat;lon;timestamp;pressure;altitude;pressure_sealevel;temperature;humidity
50302;BME280;36550;50.472;19.744;2023-05-12T00:02:19;98332.11;;;7.05;64.43
50302;BME280;36550;50.472;19.744;2023-05-12T00:05:03;98333.80;;;7.05;64.53
50302;BME280;36550;50.472;19.744;2023-05-12T00:07:47;98331.20;;;7.05;64.61
50302;BME280;36550;50.472;19.744;2023-05-12T00:10:31;98335.77;;;7.04;64.73
50302;BME280;36550;50.472;19.744;2023-05-12T00:13:15;98332.77;;;7.00;64.55
50302;BME280;36550;50.472;19.744;2023-05-12T00:16:01;98330.71;;;6.95;64.62
50302;BME280;36550;50.472;19.744;2023-05-12T00:18:45;98332.84;;;6.91;64.62
50302;BME280;36550;50.472;19.744;2023-05-12T00:21:29;98336.79;;;6.85;64.46
50302;BME280;36550;50.472;19.744;2023-05-12T00:24:13;98339.05;;;6.77;64.45
50302;BME280;36550;50.472;19.744;2023-05-12T00:26:57;98342.17;;;6.70;64.54
50302;BME280;36550;50.472;19.744;2023-05-12T00:29:42;98345.45;;;6.66;64.70
50302;BME280;36550;50.472;19.744;2023-05-12T00:32:25;98344.06;;;6.66;64.79
50302;BME280;36550;50.472;19.744;2023-05-12T00:35:10;98338.40;;;6.67;64.94
50302;BME280;36550;50.472;19.744;2023-05-12T00:37:54;98339.80;;;6.68;65.16
50302;BME280;36550;50.472;19.744;2023-05-12T00:40:38;98337.76;;;6.71;65.10
50302;BME280;36550;50.472;19.744;2023-05-12T00:43:22;98340.08;;;6.73;65.26
50302;BME280;36550;50.472;19.744;2023-05-12T00:46:07;98339.32;;;6.72;65.30
50302;BME280;36550;50.472;19.744;2023-05-12T00:48:51;98334.95;;;6.72;65.45
50302;BME280;36550;50.472;19.744;2023-05-12T00:51:36;98339.16;;;6.71;65.35
50302;BME280;36550;50.472;19.744;2023-05-12T00:54:21;98343.14;;;6.68;65.33
50302;BME280;36550;50.472;19.744;2023-05-12T00:57:05;98344.86;;;6.58;64.96
50302;BME280;36550;50.472;19.744;2023-05-12T00:59:49;98344.01;;;6.47;64.81
50302;BME280;36550;50.472;19.744;2023-05-12T01:02:34;98350.05;;;6.37;64.88
50302;BME280;36550;50.472;19.744;2023-05-12T01:05:19;98351.08;;;6.30;64.83
50302;BME280;36550;50.472;19.744;2023-05-12T01:08:03;98354.70;;;6.23;64.90
50302;BME280;36550;50.472;19.744;2023-05-12T01:10:48;98354.14;;;6.18;65.09
50302;BME280;36550;50.472;19.744;2023-05-12T01:13:33;98353.05;;;6.17;65.15
50302;BME280;36550;50.472;19.744;2023-05-12T01:16:20;98353.42;;;6.17;65.43
50302;BME280;36550;50.472;19.744;2023-05-12T01:19:08;98351.70;;;6.18;65.67
50302;BME280;36550;50.472;19.744;2023-05-12T01:21:58;98353.10;;;6.19;65.77
50302;BME280;36550;50.472;19.744;2023-05-12T01:24:51;98355.86;;;6.21;65.84
50302;BME280;36550;50.472;19.744;2023-05-12T01:27:38;98355.66;;;6.19;65.89
50302;BME280;36550;50.472;19.744;2023-05-12T01:30:23;98356.25;;;6.12;65.75
50302;BME280;36550;50.472;19.744;2023-05-12T01:33:09;98357.15;;;6.03;65.42
50302;BME280;36550;50.472;19.744;2023-05-12T01:35:53;98355.60;;;5.91;65.30
50302;BME280;36550;50.472;19.744;2023-05-12T01:38:36;98357.58;;;5.84;65.34
50302;BME280;36550;50.472;19.744;2023-05-12T01:41:20;98355.63;;;5.74;65.36
50302;BME280;36550;50.472;19.744;2023-05-12T01:44:04;98356.95;;;5.67;65.48
50302;BME280;36550;50.472;19.744;2023-05-12T01:46:48;98361.75;;;5.65;65.79
50302;BME280;36550;50.472;19.744;2023-05-12T01:49:32;98359.10;;;5.64;65.99
50302;BME280;36550;50.472;19.744;2023-05-12T01:52:16;98358.63;;;5.63;66.08
50302;BME280;36550;50.472;19.744;2023-05-12T01:55:00;98359.07;;;5.65;66.23
50302;BME280;36550;50.472;19.744;2023-05-12T01:57:44;98359.52;;;5.66;66.38
50302;BME280;36550;50.472;19.744;2023-05-12T02:00:28;98358.63;;;5.65;66.45
50302;BME280;36550;50.472;19.744;2023-05-12T02:03:12;98359.61;;;5.62;66.36
50302;BME280;36550;50.472;19.744;2023-05-12T02:05:56;98361.64;;;5.52;66.11
50302;BME280;36550;50.472;19.744;2023-05-12T02:08:39;98357.23;;;5.44;66.13
50302;BME280;36550;50.472;19.744;2023-05-12T02:11:24;98356.19;;;5.38;66.35
50302;BME280;36550;50.472;19.744;2023-05-12T02:14:09;98354.16;;;5.36;66.51
50302;BME280;36550;50.472;19.744;2023-05-12T02:16:53;98358.35;;;5.33;66.45
50302;BME280;36550;50.472;19.744;2023-05-12T02:19:37;98353.75;;;5.28;66.45
50302;BME280;36550;50.472;19.744;2023-05-12T02:22:21;98357.20;;;5.30;66.79
50302;BME280;36550;50.472;19.744;2023-05-12T02:25:06;98357.55;;;5.34;66.91
50302;BME280;36550;50.472;19.744;2023-05-12T02:27:50;98357.01;;;5.37;67.00
50302;BME280;36550;50.472;19.744;2023-05-12T02:30:33;98360.07;;;5.40;67.13
50302;BME280;36550;50.472;19.744;2023-05-12T02:33:20;98363.48;;;5.41;67.28
50302;BME280;36550;50.472;19.744;2023-05-12T02:36:06;98365.36;;;5.41;67.41
50302;BME280;36550;50.472;19.744;2023-05-12T02:38:50;98363.02;;;5.40;67.25
50302;BME280;36550;50.472;19.744;2023-05-12T02:41:34;98366.26;;;5.30;66.72
50302;BME280;36550;50.472;19.744;2023-05-12T02:44:18;98365.99;;;5.19;66.65
50302;BME280;36550;50.472;19.744;2023-05-12T02:47:04;98365.61;;;5.12;66.69
50302;BME280;36550;50.472;19.744;2023-05-12T02:49:48;98364.14;;;5.08;66.80
50302;BME280;36550;50.472;19.744;2023-05-12T02:52:32;98359.88;;;5.04;66.88
50302;BME280;36550;50.472;19.744;2023-05-12T02:55:17;98365.77;;;5.03;67.04
50302;BME280;36550;50.472;19.744;2023-05-12T02:58:04;98364.85;;;5.05;67.12
50302;BME280;36550;50.472;19.744;2023-05-12T03:00:48;98362.19;;;5.08;67.28
50302;BME280;36550;50.472;19.744;2023-05-12T03:03:32;98363.38;;;5.12;67.55
50302;BME280;36550;50.472;19.744;2023-05-12T03:06:20;98361.65;;;5.16;67.64
50302;BME280;36550;50.472;19.744;2023-05-12T03:09:05;98359.14;;;5.18;67.50
50302;BME280;36550;50.472;19.744;2023-05-12T03:11:49;98356.34;;;5.13;67.16
50302;BME280;36550;50.472;19.744;2023-05-12T03:14:53;98353.77;;;5.06;67.02
50302;BME280;36550;50.472;19.744;2023-05-12T03:17:48;98361.66;;;5.01;67.10
50302;BME280;36550;50.472;19.744;2023-05-12T03:20:32;98362.45;;;5.01;67.36
50302;BME280;36550;50.472;19.744;2023-05-12T03:23:24;98364.51;;;5.06;67.82
50302;BME280;36550;50.472;19.744;2023-05-12T03:26:34;98364.42;;;5.12;68.12
50302;BME280;36550;50.472;19.744;2023-05-12T03:30:00;98370.70;;;5.22;68.26
50302;BME280;36550;50.472;19.744;2023-05-12T03:33:09;98372.32;;;5.33;68.37
50302;BME280;36550;50.472;19.744;2023-05-12T03:35:53;98367.75;;;5.32;67.76
50302;BME280;36550;50.472;19.744;2023-05-12T03:38:57;98364.99;;;5.32;67.41
50302;BME280;36550;50.472;19.744;2023-05-12T03:41:42;98367.66;;;5.38;67.39
50302;BME280;36550;50.472;19.744;2023-05-12T03:44:46;98364.65;;;5.51;67.58
50302;BME280;36550;50.472;19.744;2023-05-12T03:47:31;98361.53;;;5.69;67.77
50302;BME280;36550;50.472;19.744;2023-05-12T03:50:35;98366.34;;;5.89;67.90
50302;BME280;36550;50.472;19.744;2023-05-12T03:53:25;98367.08;;;6.11;68.12
50302;BME280;36550;50.472;19.744;2023-05-12T03:56:29;98361.04;;;6.36;68.25
50302;BME280;36550;50.472;19.744;2023-05-12T03:59:17;98367.03;;;6.65;68.27
50302;BME280;36550;50.472;19.744;2023-05-12T04:02:01;98362.95;;;6.92;68.25
50302;BME280;36550;50.472;19.744;2023-05-12T04:04:46;98366.94;;;7.20;68.42
50302;BME280;36550;50.472;19.744;2023-05-12T04:07:30;98373.02;;;7.45;68.41
50302;BME280;36550;50.472;19.744;2023-05-12T04:10:41;98369.56;;;7.65;68.23
50302;BME280;36550;50.472;19.744;2023-05-12T04:13:46;98372.47;;;7.82;68.05
50302;BME280;36550;50.472;19.744;2023-05-12T04:17:11;98375.17;;;8.01;67.93
50302;BME280;36550;50.472;19.744;2023-05-12T04:20:09;98374.29;;;8.15;67.71
50302;BME280;36550;50.472;19.744;2023-05-12T04:22:54;98379.20;;;8.29;67.51
50302;BME280;36550;50.472;19.744;2023-05-12T04:25:49;98378.22;;;8.41;67.36
50302;BME280;36550;50.472;19.744;2023-05-12T04:28:33;98379.16;;;8.53;67.14
50302;BME280;36550;50.472;19.744;2023-05-12T04:31:44;98381.35;;;8.68;66.97
50302;BME280;36550;50.472;19.744;2023-05-12T04:34:50;98381.70;;;8.80;66.89
50302;BME280;36550;50.472;19.744;2023-05-12T04:37:49;98384.91;;;8.99;66.99
50302;BME280;36550;50.472;19.744;2023-05-12T04:41:04;98385.92;;;9.16;66.88
50302;BME280;36550;50.472;19.744;2023-05-12T04:43:51;98382.08;;;9.42;67.06
50302;BME280;36550;50.472;19.744;2023-05-12T04:46:36;98386.83;;;9.73;67.04
50302;BME280;36550;50.472;19.744;2023-05-12T04:49:40;98387.58;;;10.13;67.03
50302;BME280;36550;50.472;19.744;2023-05-12T04:52:44;98387.75;;;10.51;66.94
50302;BME280;36550;50.472;19.744;2023-05-12T04:55:28;98390.86;;;10.93;66.43
50302;BME280;36550;50.472;19.744;2023-05-12T04:58:21;98388.68;;;11.32;65.94
50302;BME280;36550;50.472;19.744;2023-05-12T05:01:12;98386.39;;;11.70;65.60
50302;BME280;36550;50.472;19.744;2023-05-12T05:03:57;98386.01;;;12.06;65.27
50302;BME280;36550;50.472;19.744;2023-05-12T05:06:41;98387.49;;;12.42;64.80
50302;BME280;36550;50.472;19.744;2023-05-12T05:09:25;98389.82;;;12.63;64.17
50302;BME280;36550;50.472;19.744;2023-05-12T05:12:28;98388.23;;;12.70;63.68
50302;BME280;36550;50.472;19.744;2023-05-12T05:16:12;98390.89;;;12.67;63.09
50302;BME280;36550;50.472;19.744;2023-05-12T05:19:56;98400.10;;;12.64;62.89
50302;BME280;36550;50.472;19.744;2023-05-12T05:23:40;98404.69;;;12.59;62.73
50302;BME280;36550;50.472;19.744;2023-05-12T05:27:24;98399.38;;;12.56;62.30
50302;BME280;36550;50.472;19.744;2023-05-12T05:31:11;98398.65;;;12.52;62.07
50302;BME280;36550;50.472;19.744;2023-05-12T05:34:38;98400.57;;;12.64;61.77
50302;BME280;36550;50.472;19.744;2023-05-12T05:37:57;98404.86;;;12.77;61.21
50302;BME280;36550;50.472;19.744;2023-05-12T05:41:20;98406.00;;;13.14;60.99
50302;BME280;36550;50.472;19.744;2023-05-12T05:44:46;98404.17;;;13.51;60.74
50302;BME280;36550;50.472;19.744;2023-05-12T05:47:34;98405.16;;;13.74;60.60
50302;BME280;36550;50.472;19.744;2023-05-12T05:50:19;98405.10;;;13.95;60.43
50302;BME280;36550;50.472;19.744;2023-05-12T05:54:03;98406.55;;;14.13;60.07
50302;BME280;36550;50.472;19.744;2023-05-12T05:57:22;98409.57;;;14.23;59.84
50302;BME280;36550;50.472;19.744;2023-05-12T06:01:06;98408.46;;;14.33;59.55
50302;BME280;36550;50.472;19.744;2023-05-12T06:04:11;98415.66;;;14.39;59.52
50302;BME280;36550;50.472;19.744;2023-05-12T06:07:55;98418.95;;;14.47;59.47
50302;BME280;36550;50.472;19.744;2023-05-12T06:11:39;98419.54;;;14.52;59.00
50302;BME280;36550;50.472;19.744;2023-05-12T06:14:43;98416.09;;;14.51;58.54
50302;BME280;36550;50.472;19.744;2023-05-12T06:17:47;98419.96;;;14.49;58.18
50302;BME280;36550;50.472;19.744;2023-05-12T06:20:45;98422.35;;;14.44;58.14
50302;BME280;36550;50.472;19.744;2023-05-12T06:24:29;98425.77;;;14.42;57.91
50302;BME280;36550;50.472;19.744;2023-05-12T06:28:13;98423.73;;;14.38;57.65
50302;BME280;36550;50.472;19.744;2023-05-12T06:32:05;98419.81;;;14.38;57.66
50302;BME280;36550;50.472;19.744;2023-05-12T06:35:49;98419.26;;;14.40;57.45
50302;BME280;36550;50.472;19.744;2023-05-12T06:38:33;98421.65;;;14.41;56.80
50302;BME280;36550;50.472;19.744;2023-05-12T06:41:57;98425.02;;;14.46;56.76
50302;BME280;36550;50.472;19.744;2023-05-12T06:44:43;98426.30;;;14.48;56.39
50302;BME280;36550;50.472;19.744;2023-05-12T06:48:07;98423.59;;;14.51;56.19
50302;BME280;36550;50.472;19.744;2023-05-12T06:51:31;98423.30;;;14.57;56.59
50302;BME280;36550;50.472;19.744;2023-05-12T06:54:54;98424.83;;;14.68;56.10
50302;BME280;36550;50.472;19.744;2023-05-12T06:57:40;98427.02;;;14.77;56.34
50302;BME280;36550;50.472;19.744;2023-05-12T07:01:04;98432.21;;;14.85;55.76
50302;BME280;36550;50.472;19.744;2023-05-12T07:04:27;98430.16;;;14.92;55.28
50302;BME280;36550;50.472;19.744;2023-05-12T07:07:19;98428.59;;;15.01;54.87
50302;BME280;36550;50.472;19.744;2023-05-12T07:10:25;98430.44;;;15.10;54.21
50302;BME280;36550;50.472;19.744;2023-05-12T07:13:50;98434.83;;;15.15;53.34
50302;BME280;36550;50.472;19.744;2023-05-12T07:17:33;98427.05;;;15.22;53.59
50302;BME280;36550;50.472;19.744;2023-05-12T07:20:38;98429.65;;;15.30;53.37
50302;BME280;36550;50.472;19.744;2023-05-12T07:23:22;98428.80;;;15.37;53.11
50302;BME280;36550;50.472;19.744;2023-05-12T07:26:06;98429.89;;;15.43;53.05
50302;BME280;36550;50.472;19.744;2023-05-12T07:28:50;98431.42;;;15.52;52.49
50302;BME280;36550;50.472;19.744;2023-05-12T07:31:34;98434.99;;;15.57;52.29
50302;BME280;36550;50.472;19.744;2023-05-12T07:34:19;98430.17;;;15.63;52.10
50302;BME280;36550;50.472;19.744;2023-05-12T07:37:24;98429.77;;;15.68;52.00
50302;BME280;36550;50.472;19.744;2023-05-12T07:40:47;98431.90;;;15.76;51.83
50302;BME280;36550;50.472;19.744;2023-05-12T07:44:11;98434.73;;;15.80;51.48
50302;BME280;36550;50.472;19.744;2023-05-12T07:47:36;98431.21;;;15.87;52.07
50302;BME280;36550;50.472;19.744;2023-05-12T07:50:44;98428.55;;;15.99;51.60
50302;BME280;36550;50.472;19.744;2023-05-12T07:53:56;98423.07;;;16.06;51.74
50302;BME280;36550;50.472;19.744;2023-05-12T07:57:01;98427.92;;;16.13;51.57
50302;BME280;36550;50.472;19.744;2023-05-12T08:00:09;98425.61;;;16.20;51.51
50302;BME280;36550;50.472;19.744;2023-05-12T08:02:53;98428.13;;;16.28;51.34
50302;BME280;36550;50.472;19.744;2023-05-12T08:06:20;98434.75;;;16.34;50.30
50302;BME280;36550;50.472;19.744;2023-05-12T08:09:51;98436.58;;;16.40;50.50
50302;BME280;36550;50.472;19.744;2023-05-12T08:12:42;98436.89;;;16.43;50.06
50302;BME280;36550;50.472;19.744;2023-05-12T08:15:49;98440.02;;;16.46;49.59
50302;BME280;36550;50.472;19.744;2023-05-12T08:18:41;98440.54;;;16.45;49.30
50302;BME280;36550;50.472;19.744;2023-05-12T08:21:51;98437.75;;;16.49;49.75
50302;BME280;36550;50.472;19.744;2023-05-12T08:24:56;98434.31;;;16.52;49.36
50302;BME280;36550;50.472;19.744;2023-05-12T08:28:19;98433.84;;;16.56;49.50
50302;BME280;36550;50.472;19.744;2023-05-12T08:31:05;98433.42;;;16.60;49.76
50302;BME280;36550;50.472;19.744;2023-05-12T08:34:12;98434.12;;;16.66;49.30
50302;BME280;36550;50.472;19.744;2023-05-12T08:37:20;98431.64;;;16.70;49.29
50302;BME280;36550;50.472;19.744;2023-05-12T08:41:10;98434.30;;;16.77;49.35
50302;BME280;36550;50.472;19.744;2023-05-12T08:44:16;98436.28;;;16.82;49.23
50302;BME280;36550;50.472;19.744;2023-05-12T08:47:29;98435.23;;;16.85;49.02
50302;BME280;36550;50.472;19.744;2023-05-12T08:50:16;98437.94;;;16.84;49.09
50302;BME280;36550;50.472;19.744;2023-05-12T08:53:21;98441.70;;;16.87;49.48
50302;BME280;36550;50.472;19.744;2023-05-12T08:56:24;98443.77;;;16.92;49.34
50302;BME280;36550;50.472;19.744;2023-05-12T08:59:30;98450.94;;;16.94;49.79
50302;BME280;36550;50.472;19.744;2023-05-12T09:02:30;98447.11;;;17.00;49.51
50302;BME280;36550;50.472;19.744;2023-05-12T09:05:14;98447.38;;;17.02;49.10
50302;BME280;36550;50.472;19.744;2023-05-12T09:08:18;98451.89;;;17.02;48.87
50302;BME280;36550;50.472;19.744;2023-05-12T09:11:25;98451.89;;;17.02;48.86
50302;BME280;36550;50.472;19.744;2023-05-12T09:14:33;98449.65;;;17.04;49.01
50302;BME280;36550;50.472;19.744;2023-05-12T09:17:57;98453.21;;;17.07;49.43
50302;BME280;36550;50.472;19.744;2023-05-12T09:20:48;98456.39;;;17.10;49.41
50302;BME280;36550;50.472;19.744;2023-05-12T09:23:56;98456.19;;;17.09;49.02
50302;BME280;36550;50.472;19.744;2023-05-12T09:27:22;98454.23;;;17.10;49.17
50302;BME280;36550;50.472;19.744;2023-05-12T09:30:49;98452.09;;;17.15;49.24
50302;BME280;36550;50.472;19.744;2023-05-12T09:34:00;98455.59;;;17.17;49.16
50302;BME280;36550;50.472;19.744;2023-05-12T09:37:44;98452.67;;;17.18;49.50
50302;BME280;36550;50.472;19.744;2023-05-12T09:41:10;98452.57;;;17.20;49.41
50302;BME280;36550;50.472;19.744;2023-05-12T09:43:58;98448.58;;;17.25;49.73
50302;BME280;36550;50.472;19.744;2023-05-12T09:47:16;98449.33;;;17.30;50.37
50302;BME280;36550;50.472;19.744;2023-05-12T09:50:42;98449.21;;;17.35;49.88
50302;BME280;36550;50.472;19.744;2023-05-12T09:53:46;98449.96;;;17.34;49.08
50302;BME280;36550;50.472;19.744;2023-05-12T09:56:39;98451.66;;;17.32;48.75
50302;BME280;36550;50.472;19.744;2023-05-12T09:59:47;98449.01;;;17.30;48.56
50302;BME280;36550;50.472;19.744;2023-05-12T10:03:12;98440.98;;;17.28;48.73
50302;BME280;36550;50.472;19.744;2023-05-12T10:06:45;98442.90;;;17.31;48.97
50302;BME280;36550;50.472;19.744;2023-05-12T10:09:51;98441.79;;;17.33;48.81
50302;BME280;36550;50.472;19.744;2023-05-12T10:12:55;98444.23;;;17.36;48.98
50302;BME280;36550;50.472;19.744;2023-05-12T10:15:47;98443.00;;;17.38;48.60
50302;BME280;36550;50.472;19.744;2023-05-12T10:18:32;98441.73;;;17.39;48.49
50302;BME280;36550;50.472;19.744;2023-05-12T10:21:43;98439.55;;;17.40;47.89
50302;BME280;36550;50.472;19.744;2023-05-12T10:25:11;98436.83;;;17.47;48.21
50302;BME280;36550;50.472;19.744;2023-05-12T10:28:17;98435.76;;;17.54;48.32
50302;BME280;36550;50.472;19.744;2023-05-12T10:31:42;98434.63;;;17.59;47.62
50302;BME280;36550;50.472;19.744;2023-05-12T10:34:50;98434.09;;;17.65;47.45
50302;BME280;36550;50.472;19.744;2023-05-12T10:38:34;98432.68;;;17.74;46.90
50302;BME280;36550;50.472;19.744;2023-05-12T10:42:07;98431.95;;;17.81;46.60
50302;BME280;36550;50.472;19.744;2023-05-12T10:45:15;98435.47;;;17.85;46.66
50302;BME280;36550;50.472;19.744;2023-05-12T10:48:23;98435.52;;;17.91;46.32
50302;BME280;36550;50.472;19.744;2023-05-12T10:51:31;98440.41;;;17.88;45.71
50302;BME280;36550;50.472;19.744;2023-05-12T10:54:40;98436.31;;;17.83;45.49
50302;BME280;36550;50.472;19.744;2023-05-12T10:58:10;98435.63;;;17.85;45.22
50302;BME280;36550;50.472;19.744;2023-05-12T11:01:03;98433.77;;;17.89;44.67
50302;BME280;36550;50.472;19.744;2023-05-12T11:04:40;98431.31;;;17.92;43.92
50302;BME280;36550;50.472;19.744;2023-05-12T11:07:58;98438.05;;;17.93;43.63
50302;BME280;36550;50.472;19.744;2023-05-12T11:10:43;98434.86;;;17.94;43.07
50302;BME280;36550;50.472;19.744;2023-05-12T11:13:48;98434.73;;;18.02;43.32
50302;BME280;36550;50.472;19.744;2023-05-12T11:16:42;98425.00;;;18.15;42.93
50302;BME280;36550;50.472;19.744;2023-05-12T11:19:27;98427.30;;;18.30;42.65
50302;BME280;36550;50.472;19.744;2023-05-12T11:22:39;98427.92;;;18.42;42.42
50302;BME280;36550;50.472;19.744;2023-05-12T11:25:57;98434.67;;;18.52;41.75
50302;BME280;36550;50.472;19.744;2023-05-12T11:28:43;98435.31;;;18.50;40.92
50302;BME280;36550;50.472;19.744;2023-05-12T11:31:50;98441.35;;;18.37;40.65
50302;BME280;36550;50.472;19.744;2023-05-12T11:34:34;98436.74;;;18.22;40.95
50302;BME280;36550;50.472;19.744;2023-05-12T11:37:43;98434.86;;;18.09;41.46
50302;BME280;36550;50.472;19.744;2023-05-12T11:40:43;98438.27;;;18.02;40.72
50302;BME280;36550;50.472;19.744;2023-05-12T11:43:47;98438.06;;;18.03;40.95
50302;BME280;36550;50.472;19.744;2023-05-12T11:50:09;98437.47;;;18.06;40.84
50302;BME280;36550;50.472;19.744;2023-05-12T11:53:27;98433.05;;;18.19;40.76
50302;BME280;36550;50.472;19.744;2023-05-12T11:56:46;98429.73;;;18.33;40.72
50302;BME280;36550;50.472;19.744;2023-05-12T11:59:34;98430.66;;;18.56;40.49
50302;BME280;36550;50.472;19.744;2023-05-12T12:02:23;98430.57;;;18.70;40.35
50302;BME280;36550;50.472;19.744;2023-05-12T12:05:16;98431.27;;;18.76;40.44
50302;BME280;36550;50.472;19.744;2023-05-12T12:08:28;98426.28;;;18.86;40.06
50302;BME280;36550;50.472;19.744;2023-05-12T12:11:12;98420.77;;;19.02;39.89
50302;BME280;36550;50.472;19.744;2023-05-12T12:13:57;98422.56;;;19.17;39.39
50302;BME280;36550;50.472;19.744;2023-05-12T12:16:42;98426.25;;;19.32;39.20
50302;BME280;36550;50.472;19.744;2023-05-12T12:19:46;98422.97;;;19.35;38.97
50302;BME280;36550;50.472;19.744;2023-05-12T12:22:32;98426.59;;;19.30;39.12
50302;BME280;36550;50.472;19.744;2023-05-12T12:25:17;98430.77;;;19.21;38.76
50302;BME280;36550;50.472;19.744;2023-05-12T12:28:04;98428.77;;;19.20;38.91
50302;BME280;36550;50.472;19.744;2023-05-12T12:30:49;98435.13;;;19.29;38.67
50302;BME280;36550;50.472;19.744;2023-05-12T12:33:33;98428.90;;;19.44;38.83
50302;BME280;36550;50.472;19.744;2023-05-12T12:36:37;98428.27;;;19.53;38.88
50302;BME280;36550;50.472;19.744;2023-05-12T12:39:22;98432.11;;;19.47;37.86
50302;BME280;36550;50.472;19.744;2023-05-12T12:42:07;98427.34;;;19.28;37.78
50302;BME280;36550;50.472;19.744;2023-05-12T12:44:51;98423.98;;;19.11;38.04
50302;BME280;36550;50.472;19.744;2023-05-12T12:47:55;98419.67;;;19.00;38.53
50302;BME280;36550;50.472;19.744;2023-05-12T12:50:39;98428.26;;;18.92;38.71
50302;BME280;36550;50.472;19.744;2023-05-12T12:53:31;98424.55;;;18.81;38.74
50302;BME280;36550;50.472;19.744;2023-05-12T12:56:15;98427.35;;;18.74;39.08
50302;BME280;36550;50.472;19.744;2023-05-12T12:59:38;98423.48;;;18.65;39.20
50302;BME280;36550;50.472;19.744;2023-05-12T13:02:23;98423.30;;;18.61;39.05
50302;BME280;36550;50.472;19.744;2023-05-12T13:05:10;98426.23;;;18.66;38.92
50302;BME280;36550;50.472;19.744;2023-05-12T13:07:54;98426.94;;;18.72;38.63
50302;BME280;36550;50.472;19.744;2023-05-12T13:10:39;98431.30;;;18.80;38.51
50302;BME280;36550;50.472;19.744;2023-05-12T13:13:24;98430.38;;;18.85;38.23
50302;BME280;36550;50.472;19.744;2023-05-12T13:16:12;98427.54;;;18.95;38.55
50302;BME280;36550;50.472;19.744;2023-05-12T13:18:57;98427.79;;;19.09;38.67
50302;BME280;36550;50.472;19.744;2023-05-12T13:21:41;98428.30;;;19.16;38.63
50302;BME280;36550;50.472;19.744;2023-05-12T13:24:28;98426.42;;;19.08;37.63
50302;BME280;36550;50.472;19.744;2023-05-12T13:27:15;98421.37;;;18.95;37.87
50302;BME280;36550;50.472;19.744;2023-05-12T13:30:00;98419.61;;;18.88;37.99
50302;BME280;36550;50.472;19.744;2023-05-12T13:32:47;98418.02;;;18.88;38.03
50302;BME280;36550;50.472;19.744;2023-05-12T13:35:32;98419.41;;;18.87;37.42
50302;BME280;36550;50.472;19.744;2023-05-12T13:38:17;98415.39;;;18.84;36.97
50302;BME280;36550;50.472;19.744;2023-05-12T13:41:03;98415.16;;;18.75;37.14
50302;BME280;36550;50.472;19.744;2023-05-12T13:43:47;98419.05;;;18.66;36.88
50302;BME280;36550;50.472;19.744;2023-05-12T13:46:48;98415.35;;;18.56;36.77
50302;BME280;36550;50.472;19.744;2023-05-12T13:49:33;98420.84;;;18.53;36.83
50302;BME280;36550;50.472;19.744;2023-05-12T13:52:22;98417.70;;;18.53;37.20
50302;BME280;36550;50.472;19.744;2023-05-12T13:55:26;98421.81;;;18.51;37.59
50302;BME280;36550;50.472;19.744;2023-05-12T13:58:10;98420.45;;;18.47;37.57
50302;BME280;36550;50.472;19.744;2023-05-12T14:00:54;98417.74;;;18.47;37.53
50302;BME280;36550;50.472;19.744;2023-05-12T14:04:01;98413.70;;;18.49;37.34
50302;BME280;36550;50.472;19.744;2023-05-12T14:06:45;98413.11;;;18.49;36.68
50302;BME280;36550;50.472;19.744;2023-05-12T14:09:29;98414.34;;;18.49;36.85
50302;BME280;36550;50.472;19.744;2023-05-12T14:12:40;98412.66;;;18.52;36.69
50302;BME280;36550;50.472;19.744;2023-05-12T14:15:43;98418.64;;;18.49;36.76
50302;BME280;36550;50.472;19.744;2023-05-12T14:18:27;98416.35;;;18.48;36.84
50302;BME280;36550;50.472;19.744;2023-05-12T14:21:10;98409.86;;;18.50;36.53
50302;BME280;36550;50.472;19.744;2023-05-12T14:24:14;98413.09;;;18.51;36.27
50302;BME280;36550;50.472;19.744;2023-05-12T14:26:58;98409.92;;;18.56;36.42
50302;BME280;36550;50.472;19.744;2023-05-12T14:29:44;98411.20;;;18.58;35.89
50302;BME280;36550;50.472;19.744;2023-05-12T14:32:28;98405.52;;;18.54;36.05
50302;BME280;36550;50.472;19.744;2023-05-12T14:35:32;98411.75;;;18.55;36.20
50302;BME280;36550;50.472;19.744;2023-05-12T14:38:45;98412.21;;;18.63;35.93
50302;BME280;36550;50.472;19.744;2023-05-12T14:41:29;98413.49;;;18.62;35.62
50302;BME280;36550;50.472;19.744;2023-05-12T14:44:33;98416.60;;;18.60;35.71
50302;BME280;36550;50.472;19.744;2023-05-12T14:47:24;98413.96;;;18.56;35.48
50302;BME280;36550;50.472;19.744;2023-05-12T14:50:09;98424.77;;;18.52;35.77
50302;BME280;36550;50.472;19.744;2023-05-12T14:52:54;98416.38;;;18.46;35.86
50302;BME280;36550;50.472;19.744;2023-05-12T14:55:39;98417.09;;;18.40;36.03
50302;BME280;36550;50.472;19.744;2023-05-12T14:58:24;98408.94;;;18.38;36.04
50302;BME280;36550;50.472;19.744;2023-05-12T15:01:31;98412.88;;;18.35;36.44
50302;BME280;36550;50.472;19.744;2023-05-12T15:04:16;98417.56;;;18.24;36.14
50302;BME280;36550;50.472;19.744;2023-05-12T15:07:01;98415.02;;;18.14;35.97
50302;BME280;36550;50.472;19.744;2023-05-12T15:09:45;98418.45;;;18.05;35.83
50302;BME280;36550;50.472;19.744;2023-05-12T15:12:33;98415.50;;;18.02;36.26
50302;BME280;36550;50.472;19.744;2023-05-12T15:15:17;98413.44;;;17.97;36.16
50302;BME280;36550;50.472;19.744;2023-05-12T15:18:21;98414.18;;;17.88;36.45
50302;BME280;36550;50.472;19.744;2023-05-12T15:21:06;98411.04;;;17.80;36.40
50302;BME280;36550;50.472;19.744;2023-05-12T15:24:10;98416.07;;;17.71;35.91
50302;BME280;36550;50.472;19.744;2023-05-12T15:26:54;98414.23;;;17.64;36.10
50302;BME280;36550;50.472;19.744;2023-05-12T15:29:40;98415.33;;;17.56;35.99
50302;BME280;36550;50.472;19.744;2023-05-12T15:32:24;98415.70;;;17.47;36.08
50302;BME280;36550;50.472;19.744;2023-05-12T15:35:09;98415.24;;;17.41;36.77
50302;BME280;36550;50.472;19.744;2023-05-12T15:38:02;98412.50;;;17.33;37.00
50302;BME280;36550;50.472;19.744;2023-05-12T15:41:06;98420.41;;;17.24;37.36